| time (UTC) | temp F | wind direction | speed MPH | gust MPH | rain 1hr in | rain 24hr in | rain mn in | humidity % | barometer mb |
| 20260507140126 | 49 | 204 | 0.0 | 0.0 | 0.00 | 0.00 | 0.00 | 81 | 1022.4 |
| 20260507135623 | 49 | 205 | 0.0 | 1.0 | 0.00 | 0.00 | 0.00 | 81 | 1022.5 |
| 20260507135121 | 49 | 207 | 2.0 | 2.0 | 0.00 | 0.00 | 0.00 | 81 | 1022.4 |
| 20260507134617 | 49 | 210 | 0.0 | 2.0 | 0.00 | 0.00 | 0.00 | 81 | 1022.4 |
| 20260507134113 | 49 | 209 | 0.0 | 1.0 | 0.00 | 0.00 | 0.00 | 81 | 1022.2 |
| 20260507133609 | 49 | 217 | 0.0 | 0.0 | 0.00 | 0.00 | 0.00 | 81 | 1022.3 |
| 20260507133107 | 49 | 209 | 1.0 | 1.0 | 0.00 | 0.00 | 0.00 | 81 | 1022.5 |
| 20260507132603 | 49 | 203 | 0.0 | 1.0 | 0.00 | 0.00 | 0.00 | 82 | 1022.4 |
| 20260507132100 | 49 | 206 | 1.0 | 1.0 | 0.00 | 0.00 | 0.00 | 82 | 1022.4 |
| 20260507131557 | 49 | 228 | 2.0 | 2.0 | 0.00 | 0.00 | 0.00 | 82 | 1022.5 |
| 20260507131055 | 49 | 199 | 0.0 | 2.0 | 0.00 | 0.00 | 0.00 | 82 | 1022.4 |
| 20260507130551 | 49 | 224 | 1.0 | 2.0 | 0.00 | 0.00 | 0.00 | 82 | 1022.5 |
| 20260507130049 | 49 | 235 | 1.0 | 1.0 | 0.00 | 0.00 | 0.00 | 82 | 1022.4 |
| 20260507125548 | 49 | 204 | 0.0 | 2.0 | 0.00 | 0.00 | 0.00 | 83 | 1022.4 |
| 20260507125045 | 49 | 210 | 0.0 | 0.0 | 0.00 | 0.00 | 0.00 | 83 | 1022.4 |
| 20260507124541 | 49 | 204 | 0.0 | 1.0 | 0.00 | 0.00 | 0.00 | 83 | 1022.3 |
| 20260507124039 | 50 | 239 | 1.0 | 2.0 | 0.00 | 0.00 | 0.00 | 83 | 1022.5 |
| 20260507123536 | 50 | 254 | 0.0 | 0.0 | 0.00 | 0.00 | 0.00 | 82 | 1022.3 |
| 20260507123033 | 50 | 201 | 0.0 | 2.0 | 0.00 | 0.00 | 0.00 | 83 | 1022.2 |
| 20260507122528 | 49 | 214 | 0.0 | 2.0 | 0.00 | 0.00 | 0.00 | 83 | 1022.3 |
| 20260507122025 | 50 | 211 | 1.0 | 1.0 | 0.00 | 0.00 | 0.00 | 83 | 1022.5 |
| 20260507121520 | 50 | 229 | 2.0 | 2.0 | 0.00 | 0.00 | 0.00 | 82 | 1022.4 |
| 20260507121016 | 50 | 207 | 0.0 | 1.0 | 0.00 | 0.00 | 0.00 | 82 | 1022.5 |
| 20260507120513 | 50 | 205 | 0.0 | 1.0 | 0.00 | 0.00 | 0.00 | 82 | 1022.6 |
| 20260507120010 | 50 | 240 | 0.0 | 1.0 | 0.00 | 0.00 | 0.00 | 82 | 1022.6 |
| 20260507115506 | 50 | 251 | 1.0 | 2.0 | 0.00 | 0.00 | 0.00 | 81 | 1022.6 |
| 20260507115002 | 50 | 232 | 0.0 | 0.0 | 0.00 | 0.00 | 0.00 | 82 | 1022.5 |
| 20260507114458 | 50 | 208 | 1.0 | 1.0 | 0.00 | 0.00 | 0.00 | 82 | 1022.8 |
| 20260507113955 | 50 | 212 | 0.0 | 0.0 | 0.00 | 0.00 | 0.00 | 81 | 1022.4 |
| 20260507113452 | 50 | 201 | 0.0 | 1.0 | 0.00 | 0.00 | 0.00 | 81 | 1022.6 |
| 20260507112949 | 50 | 206 | 0.0 | 0.0 | 0.00 | 0.00 | 0.00 | 81 | 1022.8 |
| 20260507112447 | 50 | 200 | 0.0 | 0.0 | 0.00 | 0.00 | 0.00 | 81 | 1022.5 |
| 20260507111943 | 50 | 248 | 1.0 | 2.0 | 0.00 | 0.00 | 0.00 | 81 | 1022.6 |
| 20260507111441 | 50 | 208 | 1.0 | 1.0 | 0.00 | 0.00 | 0.00 | 81 | 1022.6 |
| 20260507110937 | 50 | 205 | 0.0 | 1.0 | 0.00 | 0.00 | 0.00 | 81 | 1022.8 |
| 20260507110433 | 51 | 212 | 0.0 | 2.0 | 0.00 | 0.00 | 0.00 | 81 | 1022.8 |
| 20260507105930 | 51 | 216 | 0.0 | 1.0 | 0.00 | 0.00 | 0.00 | 82 | 1022.6 |
| 20260507105427 | 51 | 204 | 1.0 | 2.0 | 0.00 | 0.00 | 0.00 | 82 | 1022.8 |
| 20260507104924 | 51 | 206 | 0.0 | 0.0 | 0.00 | 0.00 | 0.00 | 82 | 1022.9 |
| 20260507104421 | 51 | 205 | 1.0 | 1.0 | 0.00 | 0.00 | 0.00 | 81 | 1022.9 |
| 20260507103916 | 51 | 216 | 0.0 | 3.0 | 0.00 | 0.00 | 0.00 | 82 | 1022.8 |
| 20260507103413 | 51 | 208 | 1.0 | 2.0 | 0.00 | 0.00 | 0.00 | 82 | 1022.8 |
| 20260507102909 | 51 | 206 | 0.0 | 1.0 | 0.00 | 0.00 | 0.00 | 82 | 1022.8 |
| 20260507102406 | 51 | 202 | 0.0 | 0.0 | 0.00 | 0.00 | 0.00 | 82 | 1023.1 |
| 20260507101903 | 51 | 204 | 1.0 | 2.0 | 0.00 | 0.00 | 0.00 | 82 | 1023.0 |
| 20260507101403 | 51 | 205 | 1.0 | 2.0 | 0.00 | 0.00 | 0.00 | 82 | 1023.0 |
| 20260507100900 | 51 | 218 | 0.0 | 2.0 | 0.00 | 0.00 | 0.00 | 82 | 1023.1 |
| 20260507100357 | 51 | 258 | 1.0 | 2.0 | 0.00 | 0.00 | 0.00 | 83 | 1023.1 |
| 20260507095856 | 51 | 208 | 0.0 | 1.0 | 0.00 | 0.00 | 0.00 | 83 | 1023.2 |
| 20260507095352 | 51 | 212 | 1.0 | 2.0 | 0.00 | 0.00 | 0.00 | 82 | 1023.2 |
| 20260507094849 | 51 | 207 | 0.0 | 1.0 | 0.00 | 0.00 | 0.00 | 82 | 1023.3 |
| 20260507094345 | 51 | 203 | 0.0 | 2.0 | 0.00 | 0.00 | 0.00 | 82 | 1023.2 |
| 20260507093843 | 51 | 197 | 0.0 | 2.0 | 0.00 | 0.00 | 0.00 | 83 | 1023.1 |
| 20260507093341 | 51 | 215 | 1.0 | 2.0 | 0.00 | 0.00 | 0.00 | 83 | 1023.3 |
| 20260507092839 | 51 | 211 | 2.0 | 2.0 | 0.00 | 0.00 | 0.00 | 83 | 1023.4 |
| 20260507092335 | 51 | 268 | 1.0 | 2.0 | 0.00 | 0.00 | 0.00 | 83 | 1023.3 |
| 20260507091831 | 51 | 202 | 0.0 | 1.0 | 0.00 | 0.00 | 0.00 | 83 | 1023.3 |
| 20260507091328 | 52 | 221 | 1.0 | 2.0 | 0.00 | 0.00 | 0.00 | 83 | 1023.3 |
| 20260507090823 | 52 | 212 | 0.0 | 0.0 | 0.00 | 0.00 | 0.00 | 83 | 1023.4 |
| 20260507090320 | 52 | 206 | 0.0 | 0.0 | 0.00 | 0.00 | 0.00 | 83 | 1023.5 |
| 20260507085817 | 52 | 216 | 0.0 | 0.0 | 0.00 | 0.00 | 0.00 | 83 | 1023.1 |
| 20260507085314 | 52 | 207 | 0.0 | 0.0 | 0.00 | 0.00 | 0.00 | 83 | 1023.4 |
| 20260507084811 | 52 | 209 | 0.0 | 0.0 | 0.00 | 0.00 | 0.00 | 84 | 1023.3 |
| 20260507084307 | 52 | 204 | 0.0 | 0.0 | 0.00 | 0.00 | 0.00 | 84 | 1023.5 |
| 20260507083805 | 52 | 210 | 0.0 | 1.0 | 0.00 | 0.00 | 0.00 | 84 | 1023.4 |
| 20260507083301 | 52 | 222 | 0.0 | 1.0 | 0.00 | 0.00 | 0.00 | 84 | 1023.4 |
| 20260507082757 | 52 | 212 | 0.0 | 1.0 | 0.00 | 0.00 | 0.00 | 83 | 1023.4 |
| 20260507082253 | 52 | 206 | 0.0 | 1.0 | 0.00 | 0.00 | 0.00 | 83 | 1023.5 |
| 20260507081750 | 52 | 206 | 0.0 | 2.0 | 0.00 | 0.00 | 0.00 | 83 | 1023.5 |
| 20260507081246 | 52 | 202 | 0.0 | 2.0 | 0.00 | 0.00 | 0.00 | 83 | 1023.4 |
| 20260507080743 | 52 | 207 | 0.0 | 2.0 | 0.00 | 0.00 | 0.00 | 83 | 1023.6 |
| 20260507080239 | 52 | 218 | 1.0 | 2.0 | 0.00 | 0.00 | 0.00 | 83 | 1023.6 |
| 20260507075735 | 52 | 211 | 0.0 | 2.0 | 0.00 | 0.00 | 0.00 | 83 | 1023.6 |
| 20260507075231 | 52 | 259 | 2.0 | 3.0 | 0.00 | 0.00 | 0.00 | 83 | 1023.5 |
| 20260507074727 | 52 | 206 | 0.0 | 2.0 | 0.00 | 0.00 | 0.00 | 83 | 1023.6 |
| 20260507074226 | 52 | 355 | 3.0 | 3.0 | 0.00 | 0.00 | 0.00 | 83 | 1023.6 |
| 20260507073722 | 52 | 205 | 0.0 | 3.0 | 0.00 | 0.00 | 0.00 | 82 | 1023.5 |
| 20260507073219 | 52 | 255 | 1.0 | 3.0 | 0.00 | 0.00 | 0.00 | 82 | 1023.4 |
| 20260507072717 | 52 | 205 | 1.0 | 2.0 | 0.00 | 0.00 | 0.00 | 82 | 1023.4 |
| 20260507072214 | 52 | 202 | 1.0 | 2.0 | 0.00 | 0.00 | 0.00 | 82 | 1023.5 |
| 20260507071711 | 52 | 263 | 2.0 | 2.0 | 0.00 | 0.00 | 0.00 | 82 | 1023.4 |
| 20260507071207 | 52 | 206 | 0.0 | 3.0 | 0.00 | 0.00 | 0.00 | 82 | 1023.1 |
| 20260507070705 | 52 | 224 | 2.0 | 3.0 | 0.00 | 0.00 | 0.00 | 82 | 1023.4 |
| 20260507070201 | 53 | 349 | 2.0 | 3.0 | 0.00 | 0.00 | 0.00 | 82 | 1023.5 |
| 20260507065657 | 53 | 204 | 0.0 | 1.0 | 0.00 | 0.00 | 0.00 | 82 | 1023.5 |
| 20260507065155 | 53 | 214 | 1.0 | 2.0 | 0.00 | 0.00 | 0.00 | 82 | 1023.4 |
| 20260507064652 | 53 | 206 | 0.0 | 2.0 | 0.00 | 0.00 | 0.00 | 82 | 1023.6 |
| 20260507064150 | 53 | 260 | 1.0 | 2.0 | 0.00 | 0.00 | 0.00 | 81 | 1023.3 |
| 20260507063648 | 53 | 204 | 0.0 | 3.0 | 0.00 | 0.00 | 0.00 | 81 | 1023.6 |
| 20260507063145 | 53 | 201 | 0.0 | 2.0 | 0.00 | 0.00 | 0.00 | 81 | 1023.5 |
| 20260507062641 | 53 | 205 | 1.0 | 3.0 | 0.00 | 0.00 | 0.00 | 81 | 1023.6 |
| 20260507062139 | 53 | 222 | 1.0 | 2.0 | 0.00 | 0.00 | 0.00 | 81 | 1023.4 |
| 20260507061637 | 54 | 297 | 2.0 | 4.0 | 0.00 | 0.00 | 0.00 | 81 | 1023.4 |
| 20260507061134 | 53 | 206 | 0.0 | 3.0 | 0.00 | 0.00 | 0.00 | 81 | 1023.6 |
| 20260507060632 | 54 | 201 | 1.0 | 2.0 | 0.00 | 0.00 | 0.00 | 81 | 1023.5 |
| 20260507060128 | 54 | 298 | 2.0 | 2.0 | 0.00 | 0.00 | 0.00 | 80 | 1023.4 |
| 20260507055624 | 54 | 259 | 0.0 | 1.0 | 0.00 | 0.00 | 0.00 | 80 | 1023.4 |
| 20260507055120 | 54 | 234 | 1.0 | 2.0 | 0.00 | 0.00 | 0.00 | 81 | 1023.5 |
| 20260507054616 | 54 | 208 | 0.0 | 0.0 | 0.00 | 0.00 | 0.00 | 82 | 1023.4 |
| 20260507054114 | 54 | 203 | 0.0 | 1.0 | 0.00 | 0.00 | 0.00 | 82 | 1023.2 |
| 20260507053611 | 54 | 202 | 0.0 | 2.0 | 0.00 | 0.00 | 0.00 | 82 | 1023.5 |
| 20260507053110 | 54 | 204 | 0.0 | 0.0 | 0.00 | 0.00 | 0.00 | 81 | 1023.4 |
| 20260507052607 | 54 | 227 | 2.0 | 2.0 | 0.00 | 0.00 | 0.00 | 81 | 1023.4 |
| 20260507052104 | 55 | 206 | 1.0 | 1.0 | 0.00 | 0.00 | 0.00 | 81 | 1023.5 |
| 20260507051601 | 54 | 206 | 0.0 | 1.0 | 0.00 | 0.00 | 0.00 | 82 | 1023.3 |
| 20260507051058 | 55 | 259 | 2.0 | 2.0 | 0.00 | 0.00 | 0.00 | 81 | 1023.3 |
| 20260507050554 | 55 | 208 | 0.0 | 2.0 | 0.00 | 0.00 | 0.00 | 82 | 1023.4 |
| 20260507050051 | 55 | 209 | 1.0 | 2.0 | 0.00 | 0.00 | 0.00 | 82 | 1023.4 |
| 20260507045548 | 55 | 199 | 1.0 | 6.0 | 0.00 | 0.00 | 0.00 | 82 | 1023.6 |
| 20260507045045 | 55 | 206 | 0.0 | 2.0 | 0.00 | 0.00 | 0.00 | 81 | 1023.3 |
| 20260507044541 | 55 | 225 | 2.0 | 3.0 | 0.00 | 0.00 | 0.00 | 81 | 1023.2 |
| 20260507044039 | 55 | 194 | 4.0 | 6.0 | 0.00 | 0.00 | 0.00 | 81 | 1023.3 |
| 20260507043534 | 56 | 296 | 1.0 | 2.0 | 0.00 | 0.00 | 0.00 | 81 | 1023.4 |
| 20260507043032 | 56 | 172 | 2.0 | 2.0 | 0.00 | 0.00 | 0.00 | 81 | 1023.2 |
| 20260507042527 | 56 | 218 | 0.0 | 4.0 | 0.00 | 0.00 | 0.00 | 81 | 1023.2 |
| 20260507042024 | 56 | 192 | 0.0 | 3.0 | 0.00 | 0.00 | 0.00 | 81 | 1023.1 |
| 20260507041521 | 56 | 263 | 2.0 | 2.0 | 0.00 | 0.00 | 0.00 | 81 | 1023.0 |
| 20260507041017 | 56 | 227 | 2.0 | 2.0 | 0.00 | 0.00 | 0.00 | 81 | 1023.0 |
| 20260507040514 | 56 | 195 | 0.0 | 2.0 | 0.00 | 0.00 | 0.00 | 81 | 1022.9 |
| 20260507040009 | 57 | 266 | 4.0 | 6.0 | 0.00 | 0.00 | 0.00 | 81 | 1022.9 |
| 20260507035506 | 57 | 207 | 1.0 | 3.0 | 0.00 | 0.00 | 0.00 | 81 | 1022.9 |
| 20260507035002 | 57 | 329 | 3.0 | 3.0 | 0.00 | 0.00 | 0.00 | 81 | 1022.9 |
| 20260507034459 | 57 | 285 | 2.0 | 3.0 | 0.00 | 0.00 | 0.00 | 81 | 1022.6 |
| 20260507033957 | 57 | 205 | 0.0 | 2.0 | 0.00 | 0.00 | 0.00 | 81 | 1022.5 |
| 20260507033456 | 57 | 240 | 2.0 | 3.0 | 0.00 | 0.00 | 0.00 | 80 | 1022.5 |
| 20260507032952 | 57 | 312 | 3.0 | 7.0 | 0.00 | 0.00 | 0.00 | 80 | 1022.2 |
| 20260507032449 | 58 | 230 | 2.0 | 3.0 | 0.00 | 0.00 | 0.00 | 80 | 1022.3 |
| 20260507031945 | 58 | 191 | 0.0 | 2.0 | 0.00 | 0.00 | 0.00 | 79 | 1022.3 |
| 20260507031441 | 58 | 196 | 0.0 | 3.0 | 0.00 | 0.00 | 0.00 | 79 | 1022.1 |
| 20260507030938 | 59 | 206 | 1.0 | 2.0 | 0.00 | 0.00 | 0.00 | 78 | 1022.2 |
| 20260507030436 | 59 | 194 | 2.0 | 2.0 | 0.00 | 0.00 | 0.00 | 78 | 1021.9 |
| 20260507025933 | 60 | 245 | 2.0 | 3.0 | 0.00 | 0.00 | 0.00 | 77 | 1022.0 |
| 20260507025430 | 60 | 180 | 1.0 | 3.0 | 0.00 | 0.00 | 0.00 | 76 | 1022.0 |
| 20260507024928 | 61 | 253 | 2.0 | 3.0 | 0.00 | 0.00 | 0.00 | 75 | 1021.7 |
| 20260507024425 | 61 | 214 | 1.0 | 3.0 | 0.00 | 0.00 | 0.00 | 75 | 1021.9 |
| 20260507023920 | 62 | 204 | 1.0 | 4.0 | 0.00 | 0.00 | 0.00 | 74 | 1021.8 |
| 20260507023418 | 63 | 202 | 2.0 | 4.0 | 0.00 | 0.00 | 0.00 | 72 | 1021.7 |
| 20260507022915 | 63 | 268 | 0.0 | 2.0 | 0.00 | 0.00 | 0.00 | 72 | 1021.8 |
| 20260507022411 | 63 | 199 | 3.0 | 8.0 | 0.00 | 0.00 | 0.00 | 73 | 1022.0 |
| 20260507021907 | 64 | 213 | 0.0 | 2.0 | 0.00 | 0.00 | 0.00 | 73 | 1021.8 |
| 20260507021402 | 63 | 281 | 0.0 | 4.0 | 0.00 | 0.00 | 0.00 | 74 | 1021.9 |
| 20260507020901 | 63 | 200 | 2.0 | 2.0 | 0.00 | 0.00 | 0.00 | 76 | 1022.0 |
| 20260507020357 | 62 | 204 | 1.0 | 3.0 | 0.00 | 0.00 | 0.00 | 76 | 1022.1 |
| 20260507015854 | 63 | 229 | 1.0 | 4.0 | 0.00 | 0.00 | 0.00 | 75 | 1022.2 |
| 20260507015352 | 63 | 229 | 1.0 | 3.0 | 0.00 | 0.00 | 0.00 | 74 | 1022.2 |
| 20260507014849 | 63 | 206 | 0.0 | 3.0 | 0.00 | 0.00 | 0.00 | 74 | 1022.0 |
| 20260507014345 | 63 | 203 | 0.0 | 3.0 | 0.00 | 0.00 | 0.00 | 73 | 1022.1 |
| 20260507013841 | 64 | 203 | 2.0 | 2.0 | 0.00 | 0.00 | 0.00 | 73 | 1022.0 |
| 20260507013339 | 64 | 132 | 2.0 | 3.0 | 0.00 | 0.00 | 0.00 | 72 | 1022.0 |
| 20260507012836 | 64 | 203 | 1.0 | 2.0 | 0.00 | 0.00 | 0.00 | 72 | 1022.0 |
| 20260507012331 | 65 | 239 | 1.0 | 2.0 | 0.00 | 0.00 | 0.00 | 70 | 1022.0 |
| 20260507011829 | 65 | 223 | 0.0 | 1.0 | 0.00 | 0.00 | 0.00 | 70 | 1022.0 |
| 20260507011326 | 65 | 252 | 2.0 | 3.0 | 0.00 | 0.00 | 0.00 | 70 | 1021.9 |
| 20260507010825 | 65 | 211 | 2.0 | 2.0 | 0.00 | 0.00 | 0.00 | 69 | 1021.9 |
| 20260507010321 | 65 | 256 | 1.0 | 3.0 | 0.00 | 0.00 | 0.00 | 69 | 1022.0 |
| 20260507005819 | 66 | 343 | 3.0 | 4.0 | 0.00 | 0.00 | 0.00 | 69 | 1022.0 |
| 20260507005316 | 66 | 229 | 2.0 | 2.0 | 0.00 | 0.00 | 0.00 | 66 | 1022.1 |
| 20260507004807 | 66 | 22 | 1.0 | 3.0 | 0.00 | 0.00 | 0.00 | 66 | 1022.1 |
| 20260507004304 | 67 | 214 | 1.0 | 2.0 | 0.00 | 0.00 | 0.00 | 63 | 1022.0 |
| 20260507003800 | 69 | 203 | 0.0 | 2.0 | 0.00 | 0.00 | 0.00 | 61 | 1021.9 |
| 20260507003250 | 70 | 202 | 1.0 | 3.0 | 0.00 | 0.00 | 0.00 | 61 | 1021.9 |
| 20260507002746 | 69 | 278 | 1.0 | 3.0 | 0.00 | 0.00 | 0.00 | 62 | 1022.0 |
| 20260507002242 | 68 | 248 | 3.0 | 3.0 | 0.00 | 0.00 | 0.00 | 62 | 1022.1 |
| 20260507001739 | 68 | 256 | 2.0 | 3.0 | 0.00 | 0.00 | 0.00 | 64 | 1022.1 |
| 20260507001237 | 70 | 211 | 1.0 | 4.0 | 0.00 | 0.00 | 0.00 | 59 | 1022.1 |
| 20260507000733 | 69 | 216 | 1.0 | 2.0 | 0.00 | 0.00 | 0.00 | 62 | 1022.1 |
| 20260507000229 | 67 | 203 | 0.0 | 0.0 | 0.00 | 0.00 | 0.00 | 64 | 1022.1 |
| 20260506235726 | 67 | 215 | 2.0 | 4.0 | 0.00 | 0.00 | 0.00 | 66 | 1022.0 |
| 20260506235221 | 67 | 245 | 2.0 | 3.0 | 0.00 | 0.00 | 0.00 | 66 | 1022.1 |
| 20260506234718 | 67 | 206 | 0.0 | 2.0 | 0.00 | 0.00 | 0.00 | 66 | 1022.1 |
| 20260506234215 | 66 | 218 | 1.0 | 2.0 | 0.00 | 0.00 | 0.00 | 69 | 1022.2 |
| 20260506233713 | 67 | 255 | 2.0 | 2.0 | 0.00 | 0.00 | 0.00 | 67 | 1022.1 |
| 20260506233209 | 66 | 200 | 0.0 | 3.0 | 0.00 | 0.00 | 0.00 | 69 | 1022.0 |
| 20260506232707 | 66 | 206 | 0.0 | 4.0 | 0.00 | 0.00 | 0.00 | 68 | 1022.3 |
| 20260506232200 | 66 | 194 | 0.0 | 2.0 | 0.00 | 0.00 | 0.00 | 68 | 1022.3 |
| 20260506231653 | 68 | 198 | 2.0 | 6.0 | 0.00 | 0.00 | 0.00 | 66 | 1022.2 |
| 20260506231151 | 69 | 182 | 2.0 | 3.0 | 0.00 | 0.00 | 0.00 | 61 | 1022.3 |
| 20260506230647 | 66 | 209 | 1.0 | 2.0 | 0.00 | 0.00 | 0.00 | 64 | 1022.5 |
| 20260506230144 | 64 | 204 | 0.0 | 1.0 | 0.00 | 0.00 | 0.00 | 69 | 1022.4 |
| 20260506225640 | 64 | 208 | 2.0 | 2.0 | 0.00 | 0.00 | 0.00 | 70 | 1022.3 |
| 20260506225138 | 65 | 262 | 2.0 | 4.0 | 0.00 | 0.00 | 0.00 | 70 | 1022.5 |
| 20260506224634 | 65 | 273 | 1.0 | 3.0 | 0.00 | 0.00 | 0.00 | 68 | 1022.5 |
| 20260506224130 | 64 | 211 | 0.0 | 4.0 | 0.00 | 0.00 | 0.00 | 70 | 1022.5 |
| 20260506223627 | 63 | 220 | 1.0 | 4.0 | 0.00 | 0.00 | 0.00 | 71 | 1022.5 |
| 20260506223123 | 64 | 188 | 1.0 | 4.0 | 0.00 | 0.00 | 0.00 | 71 | 1022.5 |
| 20260506222620 | 65 | 205 | 2.0 | 2.0 | 0.00 | 0.00 | 0.00 | 68 | 1022.6 |
| 20260506222116 | 64 | 201 | 2.0 | 3.0 | 0.00 | 0.00 | 0.00 | 70 | 1022.8 |
| 20260506221614 | 65 | 264 | 3.0 | 4.0 | 0.00 | 0.00 | 0.00 | 67 | 1022.4 |
| 20260506221112 | 64 | 250 | 1.0 | 3.0 | 0.00 | 0.00 | 0.00 | 70 | 1022.5 |
| 20260506220608 | 63 | 211 | 0.0 | 2.0 | 0.00 | 0.00 | 0.00 | 71 | 1022.8 |
| 20260506220103 | 64 | 210 | 1.0 | 2.0 | 0.00 | 0.00 | 0.00 | 70 | 1022.6 |
| 20260506215600 | 63 | 190 | 1.0 | 3.0 | 0.00 | 0.00 | 0.00 | 71 | 1022.4 |
| 20260506215056 | 64 | 209 | 1.0 | 6.0 | 0.00 | 0.00 | 0.00 | 71 | 1022.6 |
| 20260506214553 | 63 | 185 | 2.0 | 3.0 | 0.00 | 0.00 | 0.00 | 72 | 1022.9 |
| 20260506214050 | 63 | 170 | 2.0 | 3.0 | 0.00 | 0.00 | 0.00 | 72 | 1022.8 |
| 20260506213548 | 63 | 211 | 1.0 | 4.0 | 0.00 | 0.00 | 0.00 | 73 | 1022.9 |
| 20260506213045 | 63 | 239 | 1.0 | 3.0 | 0.00 | 0.00 | 0.00 | 73 | 1023.0 |
| 20260506212542 | 63 | 207 | 1.0 | 4.0 | 0.00 | 0.00 | 0.00 | 73 | 1023.0 |
| 20260506212037 | 63 | 201 | 2.0 | 4.0 | 0.00 | 0.00 | 0.00 | 73 | 1023.0 |
| 20260506211533 | 62 | 221 | 1.0 | 2.0 | 0.00 | 0.00 | 0.00 | 73 | 1023.0 |
| 20260506211031 | 62 | 212 | 2.0 | 4.0 | 0.00 | 0.00 | 0.00 | 74 | 1023.0 |
| 20260506210527 | 62 | 209 | 1.0 | 3.0 | 0.00 | 0.00 | 0.00 | 74 | 1022.8 |
| 20260506210024 | 63 | 214 | 2.0 | 3.0 | 0.00 | 0.00 | 0.00 | 73 | 1022.9 |
| 20260506205521 | 62 | 216 | 0.0 | 3.0 | 0.00 | 0.00 | 0.00 | 74 | 1023.1 |
| 20260506205016 | 62 | 207 | 2.0 | 3.0 | 0.00 | 0.00 | 0.00 | 75 | 1022.9 |
| 20260506204514 | 62 | 204 | 1.0 | 2.0 | 0.00 | 0.00 | 0.00 | 74 | 1023.1 |
| 20260506204011 | 62 | 207 | 1.0 | 2.0 | 0.00 | 0.00 | 0.00 | 75 | 1023.0 |
| 20260506203509 | 62 | 203 | 2.0 | 2.0 | 0.00 | 0.00 | 0.00 | 74 | 1023.0 |
| 20260506203005 | 62 | 189 | 1.0 | 3.0 | 0.00 | 0.00 | 0.00 | 76 | 1023.1 |
| 20260506202503 | 61 | 270 | 1.0 | 2.0 | 0.00 | 0.00 | 0.00 | 78 | 1023.0 |
| 20260506201958 | 60 | 207 | 0.0 | 0.0 | 0.00 | 0.00 | 0.00 | 79 | 1023.4 |
| 20260506201456 | 60 | 199 | 2.0 | 2.0 | 0.00 | 0.00 | 0.00 | 80 | 1023.2 |
| 20260506200952 | 60 | 212 | 1.0 | 2.0 | 0.00 | 0.00 | 0.00 | 79 | 1023.4 |
| 20260506200449 | 61 | 209 | 1.0 | 2.0 | 0.00 | 0.00 | 0.00 | 78 | 1023.2 |
| 20260506195945 | 60 | 227 | 1.0 | 1.0 | 0.00 | 0.00 | 0.00 | 79 | 1023.2 |
| 20260506195442 | 59 | 215 | 1.0 | 2.0 | 0.00 | 0.00 | 0.00 | 80 | 1023.3 |
| 20260506194938 | 59 | 212 | 1.0 | 2.0 | 0.00 | 0.00 | 0.00 | 80 | 1023.2 |
| 20260506194436 | 60 | 250 | 3.0 | 4.0 | 0.00 | 0.00 | 0.00 | 80 | 1023.3 |
| 20260506193932 | 60 | 205 | 1.0 | 1.0 | 0.00 | 0.00 | 0.00 | 80 | 1023.1 |
| 20260506193430 | 60 | 205 | 1.0 | 2.0 | 0.00 | 0.00 | 0.00 | 80 | 1023.2 |
| 20260506192926 | 60 | 211 | 1.0 | 2.0 | 0.00 | 0.00 | 0.00 | 79 | 1023.1 |
| 20260506192424 | 61 | 210 | 0.0 | 1.0 | 0.00 | 0.00 | 0.00 | 78 | 1023.1 |
| 20260506191920 | 60 | 197 | 0.0 | 2.0 | 0.00 | 0.00 | 0.00 | 80 | 1023.2 |
| 20260506191416 | 60 | 204 | 1.0 | 1.0 | 0.00 | 0.00 | 0.00 | 80 | 1023.2 |
| 20260506190914 | 60 | 198 | 1.0 | 2.0 | 0.00 | 0.00 | 0.00 | 80 | 1023.3 |
| 20260506190410 | 59 | 207 | 0.0 | 2.0 | 0.00 | 0.00 | 0.00 | 81 | 1023.3 |
| 20260506185907 | 59 | 211 | 0.0 | 3.0 | 0.00 | 0.00 | 0.00 | 82 | 1023.2 |
| 20260506185404 | 58 | 222 | 2.0 | 3.0 | 0.00 | 0.00 | 0.00 | 83 | 1023.4 |
| 20260506184901 | 58 | 205 | 1.0 | 3.0 | 0.00 | 0.00 | 0.00 | 84 | 1023.3 |
| 20260506184358 | 58 | 226 | 1.0 | 3.0 | 0.00 | 0.00 | 0.00 | 84 | 1023.3 |
| 20260506183855 | 58 | 208 | 2.0 | 4.0 | 0.00 | 0.00 | 0.00 | 85 | 1023.1 |
| 20260506183350 | 58 | 235 | 1.0 | 3.0 | 0.00 | 0.00 | 0.00 | 85 | 1023.2 |
| 20260506182848 | 58 | 203 | 0.0 | 1.0 | 0.00 | 0.00 | 0.00 | 85 | 1023.3 |
| 20260506182345 | 57 | 214 | 2.0 | 4.0 | 0.00 | 0.00 | 0.00 | 85 | 1023.3 |
| 20260506181842 | 57 | 192 | 1.0 | 3.0 | 0.00 | 0.00 | 0.00 | 85 | 1023.1 |
| 20260506181340 | 57 | 215 | 1.0 | 2.0 | 0.00 | 0.00 | 0.00 | 86 | 1023.2 |
| 20260506180837 | 57 | 232 | 0.0 | 1.0 | 0.00 | 0.00 | 0.00 | 86 | 1023.1 |
| 20260506180333 | 57 | 208 | 1.0 | 2.0 | 0.00 | 0.00 | 0.00 | 86 | 1023.1 |
| 20260506175829 | 57 | 209 | 0.0 | 1.0 | 0.00 | 0.00 | 0.00 | 86 | 1023.1 |
| 20260506175326 | 57 | 213 | 0.0 | 1.0 | 0.00 | 0.00 | 0.00 | 88 | 1023.1 |
| 20260506174823 | 57 | 201 | 0.0 | 6.0 | 0.00 | 0.00 | 0.00 | 88 | 1022.9 |
| 20260506174321 | 56 | 217 | 1.0 | 2.0 | 0.00 | 0.00 | 0.00 | 88 | 1022.9 |
| 20260506173818 | 56 | 209 | 1.0 | 3.0 | 0.00 | 0.00 | 0.00 | 89 | 1023.0 |
| 20260506173315 | 56 | 235 | 2.0 | 3.0 | 0.00 | 0.00 | 0.00 | 88 | 1022.9 |
| 20260506172812 | 56 | 219 | 1.0 | 2.0 | 0.00 | 0.00 | 0.00 | 88 | 1023.1 |
| 20260506172308 | 56 | 233 | 0.0 | 2.0 | 0.00 | 0.00 | 0.00 | 88 | 1023.0 |
| 20260506171806 | 57 | 225 | 2.0 | 3.0 | 0.00 | 0.00 | 0.00 | 87 | 1022.9 |
| 20260506171303 | 57 | 207 | 1.0 | 1.0 | 0.00 | 0.00 | 0.00 | 88 | 1022.8 |
| 20260506170801 | 57 | 222 | 2.0 | 3.0 | 0.00 | 0.00 | 0.00 | 87 | 1023.0 |
| 20260506170257 | 57 | 214 | 1.0 | 1.0 | 0.00 | 0.00 | 0.00 | 87 | 1022.8 |
| 20260506165755 | 57 | 205 | 0.0 | 2.0 | 0.00 | 0.00 | 0.00 | 87 | 1022.9 |
| 20260506165252 | 57 | 205 | 1.0 | 2.0 | 0.00 | 0.00 | 0.00 | 86 | 1022.8 |
| 20260506164749 | 57 | 204 | 1.0 | 2.0 | 0.00 | 0.00 | 0.00 | 86 | 1022.6 |
| 20260506164246 | 58 | 191 | 1.0 | 3.0 | 0.00 | 0.00 | 0.00 | 86 | 1022.8 |
| 20260506163743 | 58 | 204 | 1.0 | 1.0 | 0.00 | 0.00 | 0.00 | 85 | 1022.4 |
| 20260506163238 | 58 | 205 | 0.0 | 1.0 | 0.00 | 0.00 | 0.00 | 85 | 1022.3 |
| 20260506162734 | 58 | 207 | 0.0 | 1.0 | 0.00 | 0.00 | 0.00 | 85 | 1022.5 |
| 20260506162232 | 58 | 203 | 0.0 | 2.0 | 0.00 | 0.00 | 0.00 | 85 | 1022.3 |
| 20260506161729 | 58 | 207 | 1.0 | 1.0 | 0.00 | 0.00 | 0.00 | 84 | 1022.5 |
| 20260506161226 | 58 | 207 | 0.0 | 1.0 | 0.00 | 0.00 | 0.00 | 84 | 1022.1 |
| 20260506160724 | 57 | 210 | 0.0 | 0.0 | 0.00 | 0.00 | 0.00 | 86 | 1021.9 |
| 20260506160220 | 55 | 204 | 0.0 | 0.0 | 0.00 | 0.00 | 0.00 | 89 | 1021.9 |
| 20260506155719 | 55 | 210 | 0.0 | 1.0 | 0.00 | 0.00 | 0.00 | 89 | 1022.5 |
| 20260506155216 | 55 | 237 | 0.0 | 1.0 | 0.00 | 0.00 | 0.00 | 89 | 1022.9 |
| 20260506153324 | 55 | 203 | 1.0 | 3.0 | 0.00 | 0.00 | 0.00 | 90 | 1023.0 |
| 20260506152821 | 55 | 247 | 2.0 | 2.0 | 0.00 | 0.00 | 0.00 | 91 | 1022.6 |
| 20260506152318 | 55 | 216 | 1.0 | 3.0 | 0.00 | 0.00 | 0.00 | 91 | 1022.9 |
| 20260506151817 | 55 | 213 | 1.0 | 2.0 | 0.00 | 0.00 | 0.00 | 91 | 1022.6 |
| 20260506151313 | 55 | 205 | 0.0 | 2.0 | 0.00 | 0.00 | 0.00 | 91 | 1022.8 |
| 20260506150810 | 55 | 211 | 1.0 | 3.0 | 0.00 | 0.00 | 0.00 | 91 | 1022.5 |
| 20260506150307 | 56 | 325 | 3.0 | 4.0 | 0.00 | 0.00 | 0.00 | 91 | 1022.6 |
| 20260506145804 | 56 | 203 | 0.0 | 1.0 | 0.00 | 0.00 | 0.00 | 90 | 1022.3 |
| 20260506145300 | 56 | 214 | 2.0 | 2.0 | 0.00 | 0.00 | 0.00 | 90 | 1022.4 |
| 20260506144758 | 57 | 209 | 0.0 | 2.0 | 0.00 | 0.00 | 0.00 | 89 | 1021.9 |
| 20260506144254 | 57 | 203 | 0.0 | 1.0 | 0.00 | 0.00 | 0.00 | 89 | 1021.9 |
| 20260506143752 | 56 | 201 | 0.0 | 0.0 | 0.00 | 0.00 | 0.00 | 89 | 1021.8 |
| 20260506143249 | 56 | 203 | 0.0 | 0.0 | 0.00 | 0.00 | 0.00 | 90 | 1021.8 |
| 20260506142747 | 56 | 201 | 0.0 | 0.0 | 0.00 | 0.00 | 0.00 | 91 | 1022.0 |
| 20260506142245 | 55 | 201 | 0.0 | 1.0 | 0.00 | 0.00 | 0.00 | 91 | 1022.0 |
| 20260506141743 | 56 | 204 | 1.0 | 1.0 | 0.00 | 0.00 | 0.00 | 90 | 1022.1 |
| 20260506141241 | 56 | 207 | 0.0 | 0.0 | 0.00 | 0.00 | 0.00 | 90 | 1021.8 |
| 20260506140738 | 56 | 203 | 0.0 | 0.0 | 0.00 | 0.00 | 0.00 | 90 | 1021.6 |
| 20260506140235 | 56 | 205 | 1.0 | 1.0 | 0.00 | 0.00 | 0.00 | 90 | 1022.0 |